New Matamoras, Ohio
Current Conditions -  °F | °C
As of 11:12 PM on Sunday 25 Jan 2015 (Local Time) from KPKB Reporting Station
Light Rain Light Rain  
Wind Chill: 32°   Ceiling: 2700
Heat Index: 37°   Visibility: 3mi
Dew Point: 35°   Wind: 6mph
Humidity: 93%   Direction: 80°E
Pressure: 29.75"   Gusts: NA
Location:  39.52°N, 81.07°W
Report Text: KPKB 260412Z AUTO 08005KT 3SM -RA BR FEW004 OVC027 03/02 A2975 RMK AO2 P0002 T00280017
Loading
Personal Weather Stations






























Interactive Weather Map New forecast layout! Learn more

10-Day Weather Forecast

Advertisements
Track Severe Weather on mobile